createdAt,value
2023-05-13T00:00:48.110Z,11.00
2023-05-13T00:03:16.472Z,9.83
2023-05-13T00:05:45.694Z,10.83
2023-05-13T00:08:15.520Z,12.77
2023-05-13T00:10:43.775Z,10.67
2023-05-13T00:13:11.982Z,10.40
2023-05-13T00:15:40.416Z,8.67
2023-05-13T00:18:08.758Z,9.97
2023-05-13T00:20:37.056Z,13.10
2023-05-13T00:23:05.382Z,10.77
2023-05-13T00:25:35.390Z,10.03
2023-05-13T00:28:03.757Z,9.37
2023-05-13T00:30:32.448Z,10.63
2023-05-13T00:33:00.962Z,10.00
2023-05-13T00:35:29.489Z,12.27
2023-05-13T00:37:57.961Z,9.83
2023-05-13T00:40:26.593Z,11.10
2023-05-13T00:42:57.002Z,10.70
2023-05-13T00:45:25.431Z,12.20
2023-05-13T00:47:53.906Z,12.70
2023-05-13T00:50:22.590Z,12.63
2023-05-13T00:52:52.150Z,13.27
2023-05-13T00:55:20.692Z,11.77
2023-05-13T00:57:49.137Z,14.43
2023-05-13T01:00:20.042Z,13.83
2023-05-13T01:02:53.263Z,13.07
2023-05-13T01:05:30.894Z,13.93
2023-05-13T01:08:05.140Z,13.40
2023-05-13T01:10:39.225Z,14.97
2023-05-13T01:13:10.930Z,14.90
2023-05-13T01:15:43.308Z,15.33
2023-05-13T01:18:18.013Z,15.93
2023-05-13T01:20:47.432Z,13.80
2023-05-13T01:23:17.055Z,18.27
2023-05-13T01:25:45.320Z,18.73
2023-05-13T01:28:14.721Z,16.70
2023-05-13T01:30:46.248Z,19.07
2023-05-13T01:33:16.532Z,17.43
2023-05-13T01:35:45.281Z,18.67
2023-05-13T01:38:18.066Z,21.27
2023-05-13T01:40:50.890Z,20.37
2023-05-13T01:43:20.061Z,22.23
2023-05-13T01:45:49.112Z,23.20
2023-05-13T01:48:18.650Z,20.73
2023-05-13T01:50:49.320Z,24.40
2023-05-13T01:53:19.158Z,23.67
2023-05-13T01:55:48.930Z,23.93
2023-05-13T01:58:17.259Z,24.03
2023-05-13T02:00:45.535Z,25.53
2023-05-13T02:03:13.978Z,25.23
2023-05-13T02:05:43.113Z,25.57
2023-05-13T02:08:11.407Z,27.17
2023-05-13T02:10:41.878Z,28.23
2023-05-13T02:13:10.386Z,29.20
2023-05-13T02:15:40.022Z,28.10
2023-05-13T02:18:08.321Z,32.00
2023-05-13T02:20:36.727Z,30.23
2023-05-13T02:23:05.097Z,31.13
2023-05-13T02:25:33.457Z,33.23
2023-05-13T02:28:03.164Z,31.43
2023-05-13T02:30:31.448Z,32.30
2023-05-13T02:33:00.930Z,33.90
2023-05-13T02:35:30.199Z,30.23
2023-05-13T02:38:00.447Z,30.90
2023-05-13T02:40:29.829Z,28.97
2023-05-13T02:42:58.846Z,29.93
2023-05-13T02:45:41.997Z,32.87
2023-05-13T02:48:12.016Z,33.50
2023-05-13T02:50:41.021Z,33.70
2023-05-13T02:53:10.833Z,32.33
2023-05-13T02:55:43.606Z,35.07
2023-05-13T02:58:12.018Z,33.33
2023-05-13T03:00:42.913Z,35.63
2023-05-13T03:03:11.472Z,32.50
2023-05-13T03:05:39.931Z,31.33
2023-05-13T03:08:08.470Z,36.10
2023-05-13T03:10:36.973Z,33.40
2023-05-13T03:13:05.337Z,31.50
2023-05-13T03:15:33.670Z,34.17
2023-05-13T03:18:03.507Z,32.57
2023-05-13T03:20:32.414Z,32.67
2023-05-13T03:23:01.570Z,31.07
2023-05-13T03:25:29.887Z,33.43
2023-05-13T03:27:59.954Z,29.73
2023-05-13T03:30:32.427Z,31.63
2023-05-13T03:33:07.550Z,31.40
2023-05-13T03:35:35.949Z,30.10
2023-05-13T03:38:04.202Z,32.43
2023-05-13T03:40:33.966Z,31.17
2023-05-13T03:43:02.404Z,26.83
2023-05-13T03:45:31.535Z,32.40
2023-05-13T03:48:05.149Z,32.63
2023-05-13T03:50:34.849Z,35.93
2023-05-13T03:53:03.456Z,31.90
2023-05-13T03:55:32.407Z,31.20
2023-05-13T03:58:11.817Z,33.77
2023-05-13T04:00:40.141Z,39.60
2023-05-13T04:03:08.553Z,33.37
2023-05-13T04:05:38.245Z,31.40
2023-05-13T04:08:06.866Z,29.97
2023-05-13T04:10:35.558Z,34.80
2023-05-13T04:13:03.862Z,38.20
2023-05-13T04:15:32.468Z,38.53
2023-05-13T04:18:00.879Z,37.10
2023-05-13T04:20:30.145Z,37.77
2023-05-13T04:22:59.824Z,39.27
2023-05-13T04:25:28.110Z,37.67
2023-05-13T04:27:56.482Z,40.93
2023-05-13T04:30:32.683Z,34.33
2023-05-13T04:33:00.983Z,35.47
2023-05-13T04:35:30.506Z,36.63
2023-05-13T04:38:03.736Z,37.63
2023-05-13T04:40:32.223Z,34.67
2023-05-13T04:43:06.347Z,33.33
2023-05-13T04:45:41.410Z,36.33
2023-05-13T04:48:12.220Z,42.97
2023-05-13T04:50:40.681Z,38.77
2023-05-13T04:53:11.234Z,38.27
2023-05-13T04:55:40.228Z,36.97
2023-05-13T04:58:08.602Z,36.70
2023-05-13T05:00:37.858Z,40.20
2023-05-13T05:03:06.279Z,42.53
2023-05-13T05:05:35.072Z,35.40
2023-05-13T05:08:03.791Z,39.40
2023-05-13T05:10:33.704Z,39.33
2023-05-13T05:13:03.019Z,39.93
2023-05-13T05:15:31.371Z,37.67
2023-05-13T05:18:01.924Z,34.17
2023-05-13T05:20:31.665Z,36.10
2023-05-13T05:23:01.810Z,32.90
2023-05-13T05:25:32.947Z,37.37
2023-05-13T05:28:01.329Z,32.60
2023-05-13T05:30:30.556Z,35.93
2023-05-13T05:33:04.510Z,32.83
2023-05-13T05:35:33.431Z,39.67
2023-05-13T05:38:01.933Z,38.90
2023-05-13T05:40:30.812Z,35.17
2023-05-13T05:43:00.627Z,32.83
